Time;durP1;ratioP1;P1;durP2;ratioP2;P2;SDS_P1;SDS_P2;PMS_P1;PMS_P2;Temp;Humidity;BMP_temperature;BMP_pressure;BME280_temperature;BME280_humidity;BME280_pressure;Samples;Min_cycle;Max_cycle;Signal;HPM_P1;HPM_P2
2022/03/26 00:00:23;;;;;;;141.93;80.57;;;8.60;68.60;;;;;;4910186;29;20048;-68
2022/03/26 00:02:49;;;;;;;139.35;80.82;;;8.60;68.60;;;;;;4923906;29;20040;-68
2022/03/26 00:05:15;;;;;;;138.10;78.13;;;8.50;68.80;;;;;;4914188;29;20064;-68
2022/03/26 00:07:42;;;;;;;133.63;76.63;;;8.50;69.00;;;;;;4923515;29;20052;-68
2022/03/26 00:10:08;;;;;;;146.27;81.15;;;8.40;69.10;;;;;;4922193;29;20043;-69
2022/03/26 00:12:33;;;;;;;132.60;77.40;;;8.40;69.30;;;;;;4918562;29;20115;-68
2022/03/26 00:14:59;;;;;;;146.85;81.15;;;8.40;69.60;;;;;;4924055;29;20764;-69
2022/03/26 00:17:25;;;;;;;140.73;79.78;;;8.40;69.80;;;;;;4920249;29;20040;-68
2022/03/26 00:19:52;;;;;;;142.63;82.22;;;8.50;69.90;;;;;;4925928;29;20048;-68
2022/03/26 00:22:18;;;;;;;139.15;81.30;;;8.50;70.00;;;;;;4923947;29;20131;-69
2022/03/26 00:24:43;;;;;;;152.95;81.40;;;8.50;70.10;;;;;;4925241;29;20111;-69
2022/03/26 00:27:09;;;;;;;145.90;80.53;;;8.50;70.20;;;;;;4924254;29;20067;-68
2022/03/26 00:29:35;;;;;;;140.57;79.60;;;8.50;70.40;;;;;;4911720;29;20048;-68
2022/03/26 00:32:03;;;;;;;132.32;75.80;;;8.50;70.50;;;;;;4925606;29;20036;-69
2022/03/26 00:34:29;;;;;;;132.90;74.68;;;8.50;70.70;;;;;;4918730;29;20052;-68
2022/03/26 00:36:55;;;;;;;145.43;79.05;;;8.50;70.80;;;;;;4921038;29;20127;-69
2022/03/26 00:39:20;;;;;;;144.98;83.40;;;8.60;70.80;;;;;;4910824;29;20497;-67
2022/03/26 00:41:46;;;;;;;143.20;78.97;;;8.50;70.90;;;;;;4924139;29;20495;-69
2022/03/26 00:44:12;;;;;;;137.73;77.15;;;8.50;71.00;;;;;;4929554;29;20073;-68
2022/03/26 00:46:37;;;;;;;137.75;79.30;;;8.50;71.20;;;;;;4899016;29;20060;-69
2022/03/26 00:49:03;;;;;;;138.48;80.88;;;8.50;71.30;;;;;;4925314;29;20438;-68
2022/03/26 00:51:29;;;;;;;144.70;77.68;;;8.50;71.40;;;;;;4913903;29;20048;-68
2022/03/26 00:53:54;;;;;;;133.00;75.43;;;8.50;71.40;;;;;;4924435;29;20048;-68
2022/03/26 00:56:21;;;;;;;136.40;76.90;;;8.50;71.60;;;;;;4920621;29;20099;-68
2022/03/26 00:58:46;;;;;;;130.90;75.80;;;8.50;71.70;;;;;;4898923;29;20106;-69
2022/03/26 01:01:12;;;;;;;135.82;76.45;;;8.40;71.80;;;;;;4925364;29;20044;-69
2022/03/26 01:03:38;;;;;;;157.55;84.82;;;8.50;72.00;;;;;;4926180;29;20064;-68
2022/03/26 01:06:04;;;;;;;149.30;84.15;;;8.40;71.90;;;;;;4919103;29;20055;-68
2022/03/26 01:08:31;;;;;;;150.65;83.00;;;8.40;72.00;;;;;;4919785;29;20054;-69
2022/03/26 01:10:58;;;;;;;147.73;82.80;;;8.40;72.10;;;;;;4921848;29;20164;-69
2022/03/26 01:13:25;;;;;;;149.50;81.60;;;8.40;72.00;;;;;;4934278;29;20056;-69
2022/03/26 01:15:51;;;;;;;147.48;84.32;;;8.40;72.00;;;;;;4933480;29;20063;-69
2022/03/26 01:18:17;;;;;;;139.00;82.38;;;8.40;72.10;;;;;;4933817;29;20059;-69
2022/03/26 01:20:43;;;;;;;162.02;89.55;;;8.40;72.20;;;;;;4932763;29;20032;-69
2022/03/26 01:23:09;;;;;;;157.25;84.97;;;8.40;72.00;;;;;;4934118;29;20043;-69
2022/03/26 01:25:35;;;;;;;154.05;83.60;;;8.30;72.00;;;;;;4915673;29;20056;-69
2022/03/26 01:28:01;;;;;;;152.68;83.75;;;8.30;72.10;;;;;;4916835;29;20048;-69
2022/03/26 01:30:27;;;;;;;160.27;85.18;;;8.30;72.10;;;;;;4918224;29;20137;-68
2022/03/26 01:32:53;;;;;;;153.35;85.85;;;8.20;72.20;;;;;;4916124;29;20045;-68
2022/03/26 01:35:18;;;;;;;147.32;83.32;;;8.20;72.30;;;;;;4921840;29;20059;-68
2022/03/26 01:37:44;;;;;;;150.88;84.90;;;8.20;72.40;;;;;;4923640;29;20051;-68
2022/03/26 01:40:10;;;;;;;143.52;81.10;;;8.20;72.40;;;;;;4943435;29;20050;-68
2022/03/26 01:42:36;;;;;;;139.38;81.93;;;8.20;72.50;;;;;;4932920;29;20075;-69
2022/03/26 01:45:03;;;;;;;140.57;80.30;;;8.20;72.70;;;;;;4920536;29;20127;-67
2022/03/26 01:47:28;;;;;;;140.10;79.97;;;8.20;72.80;;;;;;4917457;29;20504;-67
2022/03/26 01:49:54;;;;;;;154.05;82.72;;;8.20;72.80;;;;;;4934755;29;20048;-68
2022/03/26 01:52:20;;;;;;;148.52;82.30;;;8.20;73.00;;;;;;4934052;29;20783;-68
2022/03/26 01:54:45;;;;;;;152.40;81.82;;;8.30;72.80;;;;;;4935088;29;20039;-68
2022/03/26 01:57:11;;;;;;;152.73;82.97;;;8.30;72.80;;;;;;4929874;29;20176;-68
2022/03/26 01:59:41;;;;;;;146.63;80.20;;;8.20;72.70;;;;;;4923054;29;20127;-69
2022/03/26 02:02:09;;;;;;;154.35;81.40;;;8.10;72.70;;;;;;4930119;29;20043;-69
2022/03/26 02:04:35;;;;;;;144.57;80.78;;;8.00;72.80;;;;;;4932356;29;20506;-69
2022/03/26 02:07:02;;;;;;;150.30;82.65;;;8.00;72.80;;;;;;4919517;29;20063;-69
2022/03/26 02:09:33;;;;;;;132.63;75.80;;;8.00;72.80;;;;;;4905034;29;20060;-69
2022/03/26 02:11:59;;;;;;;140.65;76.18;;;7.90;72.80;;;;;;4931082;29;20095;-69
2022/03/26 02:14:25;;;;;;;135.43;75.82;;;7.90;72.90;;;;;;4931961;29;20050;-69
2022/03/26 02:16:50;;;;;;;139.90;76.38;;;7.90;72.90;;;;;;4933970;29;20043;-69
2022/03/26 02:19:16;;;;;;;133.90;77.15;;;7.80;73.00;;;;;;4932686;29;20158;-69
2022/03/26 02:21:43;;;;;;;154.13;83.15;;;7.80;73.20;;;;;;4933222;29;20379;-69
2022/03/26 02:24:08;;;;;;;141.88;78.65;;;7.80;73.40;;;;;;4930513;29;20282;-69
2022/03/26 02:26:34;;;;;;;143.07;80.28;;;7.70;73.50;;;;;;4932863;29;20087;-69
2022/03/26 02:29:07;;;;;;;147.05;79.13;;;7.70;73.60;;;;;;4933854;29;20058;-69
2022/03/26 02:31:33;;;;;;;148.02;80.38;;;7.70;73.70;;;;;;4927078;29;20134;-69
2022/03/26 02:33:59;;;;;;;148.70;80.95;;;7.60;73.80;;;;;;4932800;29;20137;-69
2022/03/26 02:36:24;;;;;;;139.35;79.03;;;7.60;73.90;;;;;;4915360;29;20040;-69
2022/03/26 02:38:50;;;;;;;144.38;77.80;;;7.50;74.00;;;;;;4915473;29;20036;-68
2022/03/26 02:41:15;;;;;;;144.35;78.45;;;7.50;74.20;;;;;;4899585;29;20082;-67
2022/03/26 02:43:41;;;;;;;135.38;78.05;;;7.50;74.30;;;;;;4932304;29;20055;-68
2022/03/26 02:46:07;;;;;;;140.35;77.93;;;7.50;74.30;;;;;;4933153;29;20039;-68
2022/03/26 02:48:34;;;;;;;148.25;79.53;;;7.50;74.30;;;;;;4915197;29;20107;-68
2022/03/26 02:51:00;;;;;;;142.43;77.47;;;7.40;74.40;;;;;;4915308;29;20132;-68
2022/03/26 02:53:25;;;;;;;131.55;74.00;;;7.40;74.40;;;;;;4932470;29;20043;-68
2022/03/26 02:55:52;;;;;;;134.70;75.05;;;7.30;74.50;;;;;;4932579;29;20370;-68
2022/03/26 02:58:18;;;;;;;136.23;75.35;;;7.30;74.60;;;;;;4931445;29;20509;-68
2022/03/26 03:00:44;;;;;;;136.70;75.10;;;7.20;74.70;;;;;;4930343;29;20082;-67
2022/03/26 03:03:10;;;;;;;142.38;76.68;;;7.20;74.80;;;;;;4931341;29;20035;-68
2022/03/26 03:05:36;;;;;;;137.70;74.93;;;7.20;75.00;;;;;;4931501;29;20067;-68
2022/03/26 03:08:02;;;;;;;136.23;70.82;;;7.20;75.10;;;;;;4932610;29;20040;-68
2022/03/26 03:10:28;;;;;;;132.43;71.15;;;7.10;75.10;;;;;;4931135;29;20087;-68
2022/03/26 03:12:54;;;;;;;127.72;71.78;;;7.10;75.30;;;;;;4930176;29;20063;-68
2022/03/26 03:15:20;;;;;;;128.35;71.90;;;7.10;75.70;;;;;;4932289;29;20078;-68
2022/03/26 03:17:49;;;;;;;130.38;72.57;;;7.10;75.90;;;;;;4933023;29;20050;-68
2022/03/26 03:20:16;;;;;;;135.10;73.18;;;7.00;75.90;;;;;;4927528;29;20798;-68
2022/03/26 03:22:42;;;;;;;128.88;71.40;;;7.00;76.20;;;;;;4929328;29;20382;-68
2022/03/26 03:25:09;;;;;;;138.18;72.15;;;7.00;76.30;;;;;;4931364;29;20067;-68
2022/03/26 03:27:36;;;;;;;138.00;75.38;;;7.00;76.70;;;;;;4931733;29;20047;-69
2022/03/26 03:30:04;;;;;;;130.23;73.78;;;7.00;76.90;;;;;;4929720;29;20428;-69
2022/03/26 03:32:30;;;;;;;129.45;74.45;;;7.00;77.10;;;;;;4913474;29;20560;-69
2022/03/26 03:34:56;;;;;;;139.27;73.95;;;7.00;76.80;;;;;;4931115;29;20043;-69
2022/03/26 03:37:23;;;;;;;135.68;73.57;;;7.00;76.60;;;;;;4929002;29;20040;-69
2022/03/26 03:39:49;;;;;;;131.35;73.57;;;6.90;76.60;;;;;;4931817;29;20492;-68
2022/03/26 03:42:15;;;;;;;143.15;75.07;;;6.90;76.80;;;;;;4931744;29;20044;-68
2022/03/26 03:44:41;;;;;;;136.02;78.43;;;6.90;76.90;;;;;;4928406;29;20040;-69
2022/03/26 03:47:07;;;;;;;141.77;78.53;;;6.90;77.20;;;;;;4930316;29;20040;-70
2022/03/26 03:49:32;;;;;;;142.48;80.90;;;7.00;77.30;;;;;;4930230;29;20055;-69
2022/03/26 03:51:59;;;;;;;141.85;80.15;;;7.00;77.20;;;;;;4932052;29;20158;-69
2022/03/26 03:54:25;;;;;;;149.27;79.05;;;7.00;77.40;;;;;;4930877;29;20510;-68
2022/03/26 03:56:51;;;;;;;144.55;79.97;;;7.00;77.20;;;;;;4913234;29;20046;-68
2022/03/26 03:59:16;;;;;;;142.27;81.15;;;6.90;77.20;;;;;;4928406;29;20044;-68
2022/03/26 04:01:42;;;;;;;157.85;84.28;;;6.90;77.30;;;;;;4930504;29;20044;-68
2022/03/26 04:04:07;;;;;;;151.75;83.65;;;6.80;77.60;;;;;;4928797;29;20060;-70
2022/03/26 04:06:33;;;;;;;153.30;84.47;;;6.80;78.30;;;;;;4929506;29;20046;-69
2022/03/26 04:08:59;;;;;;;150.82;85.82;;;6.70;79.30;;;;;;4929415;29;20035;-71
2022/03/26 04:11:24;;;;;;;154.55;83.63;;;6.60;79.50;;;;;;4931357;29;20052;-70
2022/03/26 04:13:53;;;;;;;146.40;80.88;;;6.60;79.50;;;;;;4928531;29;20043;-69
2022/03/26 04:16:23;;;;;;;154.65;82.20;;;6.60;79.40;;;;;;4914577;29;20047;-70
2022/03/26 04:18:49;;;;;;;137.57;77.68;;;6.60;79.20;;;;;;4931611;29;20131;-71
2022/03/26 04:21:15;;;;;;;147.02;81.85;;;6.60;79.10;;;;;;4929987;29;20589;-70
2022/03/26 04:23:41;;;;;;;154.90;84.13;;;6.60;79.30;;;;;;4930605;29;20046;-70
2022/03/26 04:26:08;;;;;;;148.90;83.13;;;6.60;79.50;;;;;;4915165;29;20138;-70
2022/03/26 04:28:35;;;;;;;143.27;82.45;;;6.60;79.10;;;;;;4930789;29;20040;-70
2022/03/26 04:31:00;;;;;;;145.25;79.45;;;6.60;79.70;;;;;;4898177;29;20048;-71
2022/03/26 04:33:26;;;;;;;132.02;73.90;;;6.60;79.40;;;;;;4930681;29;20119;-70
2022/03/26 04:35:52;;;;;;;143.80;79.20;;;6.60;79.40;;;;;;4936253;29;20709;-69
2022/03/26 04:38:19;;;;;;;156.30;81.65;;;6.60;79.30;;;;;;4937869;29;20096;-69
2022/03/26 04:40:45;;;;;;;144.60;77.35;;;6.60;79.50;;;;;;4905052;29;20067;-69
2022/03/26 04:43:11;;;;;;;142.02;76.85;;;6.60;79.50;;;;;;4934587;29;20089;-69
2022/03/26 04:45:37;;;;;;;141.00;74.40;;;6.60;79.40;;;;;;4935264;29;20086;-70
2022/03/26 04:48:03;;;;;;;140.45;74.63;;;6.70;79.40;;;;;;4921375;29;20059;-70
2022/03/26 04:50:28;;;;;;;132.25;73.78;;;6.60;79.40;;;;;;4920154;29;20091;-70
2022/03/26 04:52:54;;;;;;;128.00;73.05;;;6.60;79.50;;;;;;4932644;29;20126;-70
2022/03/26 04:55:20;;;;;;;137.45;72.43;;;6.60;79.40;;;;;;4933286;29;20044;-69
2022/03/26 04:57:51;;;;;;;138.20;73.88;;;6.60;79.50;;;;;;4936876;29;20047;-70
2022/03/26 05:00:18;;;;;;;138.48;73.57;;;6.70;79.50;;;;;;4929680;29;20048;-70
2022/03/26 05:02:45;;;;;;;130.77;74.30;;;6.70;79.50;;;;;;4926596;29;20140;-70
2022/03/26 05:05:12;;;;;;;139.63;76.45;;;6.70;79.50;;;;;;4932764;29;20098;-70
2022/03/26 05:07:48;;;;;;;139.68;76.93;;;6.60;80.00;;;;;;4920370;29;20468;-70
2022/03/26 05:10:27;;;;;;;142.90;79.55;;;6.70;79.70;;;;;;4927319;29;20039;-69
2022/03/26 05:12:53;;;;;;;146.65;76.70;;;6.70;79.60;;;;;;4929679;29;20131;-69
2022/03/26 05:15:21;;;;;;;150.98;78.63;;;6.60;79.40;;;;;;4949964;29;20146;-69
2022/03/26 05:17:47;;;;;;;141.82;77.55;;;6.60;79.30;;;;;;4926997;29;20082;-69
2022/03/26 05:20:14;;;;;;;141.65;77.35;;;6.60;79.50;;;;;;4927321;29;20127;-68
2022/03/26 05:22:41;;;;;;;147.45;75.55;;;6.70;79.50;;;;;;4933438;29;20487;-68
2022/03/26 05:25:08;;;;;;;126.60;71.72;;;6.70;79.50;;;;;;4937880;29;20048;-68
2022/03/26 05:27:33;;;;;;;129.07;73.20;;;6.70;79.40;;;;;;4937680;29;20056;-68
2022/03/26 05:29:59;;;;;;;136.05;75.35;;;6.70;79.60;;;;;;4936976;29;20241;-68
2022/03/26 05:32:25;;;;;;;129.13;71.45;;;6.70;79.50;;;;;;4935527;29;20044;-68
2022/03/26 05:34:51;;;;;;;133.23;71.10;;;6.70;79.40;;;;;;4937615;29;20419;-68
2022/03/26 05:37:19;;;;;;;124.75;68.45;;;6.70;79.50;;;;;;4932985;29;20044;-68
2022/03/26 05:39:45;;;;;;;138.57;72.82;;;6.80;79.40;;;;;;4936865;29;20110;-67
2022/03/26 05:42:12;;;;;;;145.15;74.88;;;6.80;79.40;;;;;;4919182;29;20064;-67
2022/03/26 05:44:37;;;;;;;137.60;75.28;;;6.70;79.40;;;;;;4918594;29;20048;-68
2022/03/26 05:47:03;;;;;;;137.98;74.13;;;6.70;79.40;;;;;;4909159;29;20191;-68
2022/03/26 05:49:29;;;;;;;135.20;74.75;;;6.70;79.60;;;;;;4942289;29;20457;-67
2022/03/26 05:51:54;;;;;;;144.15;75.53;;;6.70;79.60;;;;;;4939180;29;20047;-68
2022/03/26 05:54:20;;;;;;;144.75;75.07;;;6.70;79.50;;;;;;4906413;29;20056;-68
2022/03/26 05:56:51;;;;;;;132.18;73.75;;;6.70;79.50;;;;;;4898317;29;20378;-68
2022/03/26 05:59:20;;;;;;;133.27;71.57;;;6.70;79.50;;;;;;4918751;29;20059;-68
2022/03/26 06:01:47;;;;;;;129.57;73.18;;;6.80;79.80;;;;;;4916340;29;20059;-68
2022/03/26 06:04:13;;;;;;;130.13;74.18;;;6.80;79.70;;;;;;4932510;29;20055;-68
2022/03/26 06:06:38;;;;;;;133.20;74.53;;;6.90;79.70;;;;;;4922803;29;20528;-68
2022/03/26 06:09:04;;;;;;;141.30;74.22;;;6.90;79.70;;;;;;4915267;29;20413;-68
2022/03/26 06:11:29;;;;;;;142.57;75.07;;;6.90;79.70;;;;;;4930906;29;20044;-68
2022/03/26 06:13:55;;;;;;;131.30;75.07;;;6.90;79.70;;;;;;4933855;29;20138;-67
2022/03/26 06:16:21;;;;;;;147.75;77.53;;;7.00;79.80;;;;;;4921761;29;20565;-68
2022/03/26 06:18:47;;;;;;;144.00;78.47;;;6.90;80.10;;;;;;4929773;29;20191;-68
2022/03/26 06:21:13;;;;;;;144.43;79.20;;;7.00;80.20;;;;;;4945036;29;20122;-69
2022/03/26 06:23:38;;;;;;;139.57;78.00;;;7.00;80.10;;;;;;4946402;29;20048;-68
2022/03/26 06:26:04;;;;;;;147.68;78.75;;;7.10;80.20;;;;;;4933818;29;20052;-68
2022/03/26 06:28:30;;;;;;;143.05;77.22;;;7.10;80.20;;;;;;4933396;29;20055;-69
2022/03/26 06:30:55;;;;;;;146.02;81.22;;;7.10;80.20;;;;;;4933848;29;20138;-69
2022/03/26 06:33:22;;;;;;;144.13;77.60;;;7.20;80.80;;;;;;4933887;29;20051;-69
2022/03/26 06:35:48;;;;;;;141.70;78.57;;;7.10;81.10;;;;;;4928434;29;20050;-67
2022/03/26 06:38:14;;;;;;;144.10;78.57;;;7.20;80.90;;;;;;4914573;29;20043;-68
2022/03/26 06:40:40;;;;;;;146.30;79.03;;;7.20;81.40;;;;;;4922974;29;20046;-68
2022/03/26 06:43:06;;;;;;;146.32;81.53;;;7.30;81.10;;;;;;4918634;29;20532;-69
2022/03/26 06:45:33;;;;;;;139.90;78.38;;;7.40;81.00;;;;;;4921640;29;20043;-69
2022/03/26 06:47:59;;;;;;;142.95;81.25;;;7.40;81.10;;;;;;4916697;29;20083;-69
2022/03/26 06:50:25;;;;;;;141.20;77.97;;;7.50;81.30;;;;;;4917049;29;20130;-69
2022/03/26 06:52:51;;;;;;;139.95;80.28;;;7.60;81.60;;;;;;4923373;29;20048;-68
2022/03/26 06:55:17;;;;;;;140.27;80.10;;;7.60;82.30;;;;;;4914781;29;20048;-68
2022/03/26 06:57:42;;;;;;;158.73;83.18;;;7.60;82.90;;;;;;4921272;29;20405;-68
2022/03/26 07:00:09;;;;;;;145.95;83.32;;;7.60;82.70;;;;;;4930321;29;20493;-67
2022/03/26 07:02:36;;;;;;;144.75;79.88;;;7.70;83.10;;;;;;4929539;29;20055;-67
2022/03/26 07:05:02;;;;;;;138.20;80.00;;;7.80;83.10;;;;;;4927574;29;20137;-67
2022/03/26 07:07:28;;;;;;;134.73;75.88;;;7.90;83.00;;;;;;4925107;29;20130;-67
2022/03/26 07:09:54;;;;;;;134.60;73.82;;;7.90;83.20;;;;;;4931888;29;20202;-68
2022/03/26 07:12:19;;;;;;;132.63;74.22;;;7.90;83.30;;;;;;4933756;29;20611;-69
2022/03/26 07:14:45;;;;;;;138.48;77.93;;;7.90;83.90;;;;;;4931609;29;20044;-68
2022/03/26 07:17:11;;;;;;;134.27;76.15;;;8.00;84.10;;;;;;4901066;29;20048;-68
2022/03/26 07:19:36;;;;;;;135.77;75.07;;;8.00;84.20;;;;;;4930698;29;20039;-68
2022/03/26 07:22:02;;;;;;;137.13;73.95;;;8.00;84.20;;;;;;4915695;29;20051;-68
2022/03/26 07:24:28;;;;;;;140.98;77.95;;;8.10;84.20;;;;;;4928879;29;20055;-68
2022/03/26 07:26:53;;;;;;;134.52;74.82;;;8.10;84.00;;;;;;4933260;29;20047;-68
2022/03/26 07:29:19;;;;;;;131.05;74.53;;;8.20;83.90;;;;;;4932031;29;20544;-68
2022/03/26 07:31:45;;;;;;;138.85;73.50;;;8.30;83.90;;;;;;4933666;28;20416;-68
2022/03/26 07:34:12;;;;;;;123.20;72.07;;;8.40;83.90;;;;;;4915573;29;20168;-68
2022/03/26 07:36:38;;;;;;;134.65;76.35;;;8.40;83.50;;;;;;4925884;29;20055;-68
2022/03/26 07:39:03;;;;;;;126.32;74.60;;;8.50;83.30;;;;;;4922630;29;20039;-68
2022/03/26 07:41:29;;;;;;;134.48;77.65;;;8.60;83.30;;;;;;4922271;29;20127;-68
2022/03/26 07:43:55;;;;;;;125.70;73.95;;;8.60;83.40;;;;;;4933426;29;20054;-68
2022/03/26 07:46:21;;;;;;;128.68;73.22;;;8.70;83.80;;;;;;4900006;29;20051;-68
2022/03/26 07:48:48;;;;;;;125.43;72.05;;;8.70;83.50;;;;;;4932504;29;20055;-68
2022/03/26 07:51:13;;;;;;;125.05;70.35;;;8.80;83.70;;;;;;4932614;29;20130;-68
2022/03/26 07:53:39;;;;;;;127.50;71.25;;;8.90;83.40;;;;;;4918626;29;20051;-68
2022/03/26 07:56:05;;;;;;;124.00;68.72;;;9.00;82.90;;;;;;4928625;29;20099;-69
2022/03/26 07:58:31;;;;;;;119.15;67.38;;;9.10;82.60;;;;;;4950247;29;20043;-68
2022/03/26 08:00:56;;;;;;;117.60;68.25;;;9.10;82.60;;;;;;4951708;28;20502;-68
2022/03/26 08:03:22;;;;;;;115.50;65.68;;;9.20;82.80;;;;;;4951964;29;20058;-69
2022/03/26 08:05:47;;;;;;;119.35;67.32;;;9.30;82.50;;;;;;4952135;29;20530;-69
2022/03/26 08:08:13;;;;;;;114.43;66.68;;;9.40;82.40;;;;;;4951483;28;20043;-68
2022/03/26 08:10:39;;;;;;;120.35;69.18;;;9.50;82.40;;;;;;4945427;28;20036;-69
2022/03/26 08:13:04;;;;;;;114.45;62.72;;;9.60;82.10;;;;;;4932894;29;20042;-68
2022/03/26 08:15:30;;;;;;;106.35;62.75;;;9.60;81.80;;;;;;4927429;29;20567;-68
2022/03/26 08:17:58;;;;;;;114.50;61.00;;;9.70;81.10;;;;;;4920681;29;20565;-67
2022/03/26 08:20:26;;;;;;;107.13;61.08;;;9.80;80.50;;;;;;4914228;29;20122;-68
2022/03/26 08:22:52;;;;;;;103.63;61.72;;;9.90;80.10;;;;;;4914298;29;20135;-66
2022/03/26 08:26:19;;;;;;;102.93;58.38;;;10.00;79.70;;;;;;4923157;29;20123;-68
2022/03/26 08:28:08;;;;;;;109.50;61.72;;;10.10;78.80;;;;;;4922215;29;20040;-68
2022/03/26 08:30:34;;;;;;;110.72;61.97;;;10.20;78.70;;;;;;4915608;29;20052;-67
2022/03/26 08:33:01;;;;;;;101.57;58.35;;;10.30;78.50;;;;;;4915213;29;20056;-68
2022/03/26 08:35:31;;;;;;;94.22;56.00;;;10.30;77.60;;;;;;4891026;29;20079;-68
2022/03/26 08:37:57;;;;;;;101.93;56.25;;;10.50;77.60;;;;;;4913628;29;20079;-68
2022/03/26 08:40:22;;;;;;;112.47;58.55;;;10.60;77.30;;;;;;4918315;29;20074;-68
2022/03/26 08:42:48;;;;;;;94.40;57.17;;;10.60;76.50;;;;;;4931755;29;20048;-67
2022/03/26 08:45:13;;;;;;;105.88;57.38;;;10.70;76.30;;;;;;4916051;29;20156;-68
2022/03/26 08:47:39;;;;;;;111.20;61.13;;;10.80;76.20;;;;;;4918237;29;20107;-68
2022/03/26 08:50:06;;;;;;;98.53;56.88;;;11.00;76.10;;;;;;4920988;29;20058;-68
2022/03/26 08:52:34;;;;;;;96.43;55.97;;;11.00;75.90;;;;;;4918823;29;20126;-69
2022/03/26 08:55:00;;;;;;;95.60;54.53;;;11.10;75.40;;;;;;4913746;29;20434;-69
2022/03/26 08:57:26;;;;;;;98.28;54.20;;;11.10;75.00;;;;;;4916320;29;20036;-68
2022/03/26 08:59:52;;;;;;;93.47;52.45;;;11.20;74.80;;;;;;4914301;29;20509;-68
2022/03/26 09:02:18;;;;;;;94.85;52.08;;;11.30;74.50;;;;;;4919817;29;20598;-68
2022/03/26 09:04:45;;;;;;;95.15;54.92;;;11.40;74.00;;;;;;4918058;29;20051;-68
2022/03/26 09:07:11;;;;;;;91.85;48.60;;;11.50;73.80;;;;;;4913214;29;20067;-68
2022/03/26 09:09:36;;;;;;;72.97;41.92;;;11.60;73.60;;;;;;4921692;29;20482;-68
2022/03/26 09:12:02;;;;;;;82.78;45.22;;;11.80;72.70;;;;;;4925088;29;20047;-68
2022/03/26 09:14:28;;;;;;;82.97;46.58;;;11.80;71.90;;;;;;4924910;29;20051;-69
2022/03/26 09:16:53;;;;;;;78.85;44.90;;;11.90;71.40;;;;;;4913017;29;20502;-68
2022/03/26 09:19:19;;;;;;;72.18;44.28;;;11.90;71.20;;;;;;4915469;29;20047;-67
2022/03/26 09:21:46;;;;;;;84.90;47.00;;;12.00;71.30;;;;;;4920291;29;20044;-66
2022/03/26 09:24:13;;;;;;;74.15;42.17;;;12.10;71.30;;;;;;4933796;29;20508;-68
2022/03/26 09:26:39;;;;;;;74.40;43.67;;;12.20;71.10;;;;;;4931558;29;20048;-70
2022/03/26 09:29:05;;;;;;;73.90;40.83;;;12.30;71.10;;;;;;4934355;29;20091;-66
2022/03/26 09:31:31;;;;;;;74.03;40.35;;;12.40;71.00;;;;;;4928649;29;20036;-71
2022/03/26 09:33:56;;;;;;;73.68;40.45;;;12.50;70.60;;;;;;4934916;29;20544;-68
2022/03/26 09:36:22;;;;;;;67.90;41.17;;;12.50;70.70;;;;;;4916860;29;20047;-70
2022/03/26 09:38:48;;;;;;;72.00;42.28;;;12.60;70.60;;;;;;4929877;29;20039;-69
2022/03/26 09:41:14;;;;;;;65.30;39.13;;;12.70;70.50;;;;;;4923040;29;20408;-69
2022/03/26 09:43:40;;;;;;;63.17;39.67;;;12.80;70.30;;;;;;4924562;29;20056;-69
2022/03/26 09:46:06;;;;;;;72.90;41.78;;;12.80;70.20;;;;;;4907829;29;20123;-68
2022/03/26 09:48:32;;;;;;;72.60;42.42;;;12.80;70.40;;;;;;4929683;29;20043;-68
2022/03/26 09:51:00;;;;;;;62.00;37.03;;;12.80;70.10;;;;;;4916022;29;20052;-68
2022/03/26 09:53:27;;;;;;;56.75;33.67;;;12.90;70.30;;;;;;4918327;29;20123;-69
2022/03/26 09:55:53;;;;;;;54.90;34.67;;;12.90;70.20;;;;;;4928123;29;20047;-69
2022/03/26 09:58:19;;;;;;;57.50;34.10;;;12.90;70.10;;;;;;4915049;29;20529;-69
2022/03/26 10:00:45;;;;;;;44.83;30.50;;;13.00;70.20;;;;;;4930790;29;20130;-68
2022/03/26 10:03:10;;;;;;;45.45;29.35;;;13.10;70.40;;;;;;4921956;29;20099;-69
2022/03/26 10:05:37;;;;;;;44.28;28.33;;;13.10;70.30;;;;;;4922292;29;20055;-68
2022/03/26 10:08:22;;;;;;;40.22;26.55;;;13.20;70.20;;;;;;4909228;29;20051;-69
2022/03/26 10:10:48;;;;;;;40.17;23.98;;;13.30;70.10;;;;;;4929783;29;20482;-69
2022/03/26 10:13:35;;;;;;;38.63;23.10;;;13.30;70.10;;;;;;4933781;29;20054;-68
2022/03/26 10:16:03;;;;;;;33.38;21.17;;;13.40;69.40;;;;;;4923293;29;20044;-70
2022/03/26 10:18:40;;;;;;;31.05;19.30;;;13.50;69.40;;;;;;4921920;29;20099;-69
2022/03/26 10:21:13;;;;;;;29.10;18.83;;;13.60;68.60;;;;;;4925767;29;20052;-68
2022/03/26 10:23:50;;;;;;;30.92;16.40;;;13.60;68.00;;;;;;4934694;29;20551;-68
2022/03/26 10:26:26;;;;;;;31.63;17.92;;;13.70;66.50;;;;;;4914898;29;20566;-69
2022/03/26 10:28:53;;;;;;;26.13;16.95;;;13.90;65.60;;;;;;4917337;29;20458;-70
2022/03/26 10:34:16;;;;;;;32.92;17.88;;;13.90;65.00;;;;;;4919482;29;20091;-67
2022/03/26 10:36:45;;;;;;;25.52;18.08;;;13.90;65.10;;;;;;4931400;29;20539;-69
2022/03/26 10:39:21;;;;;;;28.30;16.15;;;14.00;65.10;;;;;;4931629;29;20044;-68
2022/03/26 10:41:48;;;;;;;21.60;14.68;;;14.00;64.80;;;;;;4932149;29;20035;-68
2022/03/26 10:44:16;;;;;;;24.23;15.20;;;14.10;64.50;;;;;;4931235;29;20051;-68
2022/03/26 10:46:47;;;;;;;27.45;16.08;;;14.10;64.00;;;;;;4931861;29;20045;-69
2022/03/26 10:49:24;;;;;;;26.45;15.10;;;14.20;64.00;;;;;;4926621;29;20106;-69
2022/03/26 10:51:50;;;;;;;21.05;14.48;;;14.20;63.90;;;;;;4923982;29;20096;-67
2022/03/26 10:54:16;;;;;;;20.80;12.93;;;14.30;63.20;;;;;;4924980;29;20131;-68
2022/03/26 10:56:42;;;;;;;20.40;14.63;;;14.40;63.20;;;;;;4927703;29;20047;-68
2022/03/26 10:59:08;;;;;;;20.58;12.05;;;14.40;62.90;;;;;;4927158;29;20067;-64
2022/03/26 11:01:34;;;;;;;17.75;11.95;;;14.50;63.70;;;;;;4923937;29;20579;-63
2022/03/26 11:04:01;;;;;;;19.83;11.55;;;14.70;63.60;;;;;;4926966;29;20526;-63
2022/03/26 11:06:28;;;;;;;17.25;11.43;;;14.80;62.30;;;;;;4913074;29;20056;-68
2022/03/26 11:09:00;;;;;;;16.20;9.80;;;14.90;62.00;;;;;;4915781;29;20062;-67
2022/03/26 11:11:29;;;;;;;13.63;9.10;;;15.00;61.30;;;;;;4926257;29;20051;-68
2022/03/26 11:14:02;;;;;;;16.38;10.23;;;15.00;60.80;;;;;;4930210;29;20475;-72
2022/03/26 11:17:00;;;;;;;14.25;9.70;;;15.00;60.80;;;;;;4920806;29;20055;-67
2022/03/26 11:19:40;;;;;;;19.40;9.25;;;15.10;60.30;;;;;;4919592;29;20090;-67
2022/03/26 11:22:25;;;;;;;14.50;9.73;;;15.20;59.80;;;;;;4925209;29;20040;-68
2022/03/26 11:25:37;;;;;;;14.15;9.10;;;15.10;59.70;;;;;;4919396;29;20046;-67
2022/03/26 11:28:21;;;;;;;13.43;7.65;;;15.20;58.60;;;;;;4876672;29;20576;-67
2022/03/26 11:31:08;;;;;;;16.42;8.05;;;15.10;58.60;;;;;;4931627;29;20602;-66
2022/03/26 11:33:36;;;;;;;10.90;7.13;;;15.10;58.30;;;;;;4926484;29;20528;-67
2022/03/26 11:36:05;;;;;;;15.25;7.88;;;15.10;58.80;;;;;;4933894;29;20047;-65
2022/03/26 11:38:31;;;;;;;14.98;8.23;;;15.10;58.40;;;;;;4933076;28;20048;-66
2022/03/26 11:41:04;;;;;;;14.73;8.93;;;15.20;58.70;;;;;;4918633;29;20052;-67
2022/03/26 11:43:42;;;;;;;9.88;6.35;;;15.20;58.90;;;;;;4929487;29;20040;-66
2022/03/26 11:51:57;;;;;;;9.98;6.32;;;15.20;58.40;;;;;;4913508;29;20060;-66
2022/03/26 11:54:24;;;;;;;11.23;6.50;;;15.30;57.90;;;;;;4930899;29;20040;-67
2022/03/26 11:57:12;;;;;;;11.43;7.95;;;15.30;58.00;;;;;;4923167;29;20047;-67
2022/03/26 11:59:39;;;;;;;12.68;7.03;;;15.40;57.90;;;;;;4919413;29;20099;-67
2022/03/26 12:02:25;;;;;;;11.25;7.03;;;15.30;58.50;;;;;;4914248;29;20051;-67
2022/03/26 12:04:59;;;;;;;15.02;6.57;;;15.40;57.90;;;;;;4925426;29;20052;-69
2022/03/26 12:07:29;;;;;;;11.82;6.13;;;15.40;58.00;;;;;;4927635;29;20052;-66
2022/03/26 12:10:10;;;;;;;11.18;5.60;;;15.50;58.10;;;;;;4915113;29;20043;-66
2022/03/26 12:12:58;;;;;;;7.55;4.40;;;15.50;56.10;;;;;;4931376;29;20047;-67
2022/03/26 12:15:26;;;;;;;8.52;5.07;;;15.50;56.20;;;;;;4923183;29;20434;-68
2022/03/26 12:18:13;;;;;;;8.93;4.50;;;15.60;56.20;;;;;;4932384;29;20048;-66
2022/03/26 12:20:44;;;;;;;6.03;3.95;;;15.60;54.00;;;;;;4923031;29;20051;-67
2022/03/26 12:23:14;;;;;;;12.05;5.63;;;15.50;54.80;;;;;;4921777;29;20607;-67
2022/03/26 12:25:58;;;;;;;8.90;4.78;;;15.50;55.00;;;;;;4928225;29;20160;-65
2022/03/26 12:28:57;;;;;;;7.90;3.58;;;15.60;54.10;;;;;;4930529;29;20807;-66
2022/03/26 12:31:29;;;;;;;9.32;4.60;;;15.60;54.40;;;;;;4882727;29;20056;-66
2022/03/26 12:33:55;;;;;;;7.93;5.25;;;15.60;54.90;;;;;;4929635;29;20055;-66
2022/03/26 12:36:22;;;;;;;8.02;4.13;;;15.50;54.90;;;;;;4932042;29;20663;-66
2022/03/26 12:38:53;;;;;;;5.60;3.88;;;15.50;55.20;;;;;;4931147;29;20044;-66